Latest Coastal Weather Observations for Milingimbi

IDD60701

Issued at 7:51 pm CST Saturday 22 February 2020 (issued every 10 minutes, with the page automatically refreshed every 10 minutes)

About coastal observations | Map of coastal stations | Coastal observations for NT | Marine services | Other Formats
Station Details ID: 014404 Name: MILINGIMBI AIRPORT Lat: -12.09 Lon: 134.89 Height: 15.0 m
Data from the previous 72 hours. | See also: Recent months at Milingimbi
Date/Time
CST
Wind Sea
Height
m
Swell Vis
km
Cloud Weather Temp
°C
Press
hPa
Rain since
9am
mm
Dir  Spd
kts
Gust
kts
Height
m
Period
s
Dir
22/07:30pm NW 5 8 - - - - - - - 27.3 1005.8 4.0
22/07:00pm N 2 5 - - - - - - - 26.9 1004.5 4.0
22/06:30pm NNW 2 4 - - - - - - - 26.9 1004.7 4.0
22/06:00pm NW 3 6 - - - - - - - 27.0 1004.3 4.0
22/05:30pm NNW 3 5 - - - - - - - 27.2 1004.4 4.0
22/05:00pm N 5 8 - - - - - - - 27.3 1004.4 4.0
22/04:30pm W 4 9 - - - - - - - 27.9 1003.6 4.0
22/04:00pm SE 7 11 - - - - - - - 27.4 1003.1 4.0
22/03:30pm SSE 13 21 - - - - - - - 26.5 1003.8 4.0
22/03:19pm SSE 15 27 - - - - - - - 26.9 1004.0 4.0
22/03:00pm W 8 19 - - - - - - Rain 28.2 1005.1 0.8
22/02:30pm NNW 6 9 - - - - - - - 31.4 1004.2 0.0
22/02:00pm SSW 5 8 - - - - - - - 33.5 1004.7 0.0
22/01:30pm SSW 5 10 - - - - - - - 34.2 1005.3 0.0
22/01:00pm SSW 7 12 - - - - - - - 33.8 1005.9 0.0
22/12:30pm S 3 5 - - - - - - - 33.0 1006.5 0.0
22/12:00pm ESE 4 7 - - - - - - - 32.3 1006.8 0.0
22/11:30am ESE 8 12 - - - - - - - 31.3 1006.9 0.0
22/11:00am S 7 11 - - - - - - - 32.1 1006.9 0.0
22/10:30am SSW 9 13 - - - - - - - 31.8 1007.3 0.0
22/10:00am SW 8 11 - - - - - - - 31.5 1007.5 0.0
22/09:30am SW 9 13 - - - - - - - 30.5 1007.8 0.0
22/09:00am WSW 9 13 - - - - - - - 29.8 1007.5 0.0
22/08:30am WSW 9 13 - - - - - - - 28.9 1007.5 0.0
22/08:00am WSW 7 13 - - - - - - - 27.8 1007.2 0.0
22/07:30am WSW 7 9 - - - - - - - 26.2 1006.7 0.0
22/07:00am WSW 5 8 - - - - - - - 25.6 1006.2 0.0
22/06:30am W 5 7 - - - - - - - 25.5 1005.9 0.0
22/06:00am WSW 5 7 - - - - - - - 25.5 1005.7 0.0
22/05:30am W 4 6 - - - - - - - 25.5 1005.6 0.0
22/05:00am WSW 4 6 - - - - - - - 25.6 1005.6 0.0
22/04:30am WSW 5 7 - - - - - - - 25.6 1005.4 0.0
22/04:00am WSW 5 7 - - - - - - - 25.6 1005.8 0.0
22/03:30am WSW 4 7 - - - - - - - 25.7 1005.9 0.0
22/03:00am WSW 4 7 - - - - - - - 25.8 1006.2 0.0
22/02:30am WSW 4 6 - - - - - - - 25.8 1006.5 0.0
22/02:00am WSW 5 7 - - - - - - - 25.8 1006.6 0.0
22/01:30am W 4 6 - - - - - - - 25.9 1006.9 0.0
22/01:00am W 4 5 - - - - - - - 26.0 1007.1 0.0
22/12:30am W 4 5 - - - - - - - 26.3 1007.3 0.0
22/12:00am W 4 5 - - - - - - - 26.3 1007.7 0.0
 
Date/Time
CST
Wind Sea
Height
m
Swell Vis
km
Cloud Weather Temp
°C
Press
hPa
Rain since
9am
mm
Dir  Spd
kts
Gust
kts
Height
m
Period
s
Dir
21/11:30pm W 4 6 - - - - - - - 26.5 1007.9 0.0
21/11:00pm WNW 4 6 - - - - - - - 26.7 1007.9 0.0
21/10:30pm W 3 5 - - - - - - - 27.2 1007.7 0.0
21/10:00pm WSW 3 5 - - - - - - - 27.3 1007.4 0.0
21/09:30pm W 3 4 - - - - - - - 27.4 1007.2 0.0
21/09:00pm W 3 5 - - - - - - - 27.5 1007.1 0.0
21/08:30pm W 4 6 - - - - - - - 27.7 1006.9 0.0
21/08:00pm W 5 7 - - - - - - - 28.2 1006.5 0.0
21/07:30pm SSW 4 6 - - - - - - - 29.3 1006.6 0.0
21/07:00pm S 3 4 - - - - - - - 29.6 1006.5 0.0
21/06:30pm S 2 4 - - - - - - - 29.9 1006.4 0.0
21/06:00pm SSE 1 3 - - - - - - - 30.2 1005.7 0.0
21/05:30pm SSE 2 5 - - - - - - - 30.4 1005.4 0.0
21/05:00pm SSW 5 7 - - - - - - - 30.5 1005.2 0.0
21/04:30pm SSE 5 6 - - - - - - - 30.8 1004.8 0.0
21/04:00pm SE 7 11 - - - - - - - 31.1 1004.8 0.0
21/03:30pm SSE 7 11 - - - - - - - 30.6 1004.9 0.0
21/03:00pm S 8 12 - - - - - - - 30.9 1004.9 0.0
21/02:30pm SSE 12 18 - - - - - - - 31.7 1004.9 0.0
21/02:00pm SSE 9 18 - - - - - - - 31.5 1005.6 0.0
21/01:30pm S 11 18 - - - - - - - 31.0 1006.2 0.0
21/01:00pm S 9 15 - - - - - - - 31.9 1006.5 0.0
21/12:30pm ESE 6 11 - - - - - - - 32.7 1007.3 0.0
21/12:00pm S 8 12 - - - - - - - 32.5 1007.8 0.0
21/11:30am SSE 4 7 - - - - - - - 32.6 1007.7 0.0
21/11:00am SW 5 8 - - - - - - - 31.2 1007.7 0.0
21/10:30am SSW 5 7 - - - - - - - 29.4 1008.1 0.0
21/10:00am S 5 8 - - - - - - - 28.7 1008.0 0.0
21/09:30am S 7 9 - - - - - - - 28.4 1007.7 0.0
21/09:00am SSW 4 6 - - - - - - - 28.0 1007.5 0.6
21/08:30am SW 5 8 - - - - - - - 27.1 1007.3 0.6
21/08:00am SW 5 7 - - - - - - - 26.2 1006.8 0.6
21/07:30am SW 4 6 - - - - - - - 25.2 1006.4 0.6
21/07:00am WSW 3 5 - - - - - - - 24.8 1005.9 0.6
21/06:30am W 3 4 - - - - - - - 24.7 1005.6 0.6
21/06:00am W 3 4 - - - - - - - 24.8 1005.6 0.6
21/05:30am W 3 4 - - - - - - - 24.7 1005.6 0.6
21/05:00am W 3 5 - - - - - - - 24.8 1005.5 0.6
21/04:30am WSW 5 7 - - - - - - - 24.8 1005.4 0.6
21/04:00am WSW 4 6 - - - - - - - 24.9 1005.4 0.6
21/03:30am WSW 5 7 - - - - - - - 24.8 1005.5 0.6
21/03:00am WSW 5 7 - - - - - - - 24.9 1006.2 0.6
21/02:30am W 5 6 - - - - - - - 25.0 1006.6 0.6
21/02:00am WSW 5 9 - - - - - - - 25.2 1007.0 0.6
21/01:30am WSW 5 7 - - - - - - - 25.4 1007.1 0.6
21/01:00am WSW 4 6 - - - - - - - 25.4 1007.2 0.6
21/12:30am SSW 3 4 - - - - - - - 25.5 1007.4 0.6
21/12:00am SSW 4 6 - - - - - - - 25.5 1007.8 0.6
 
Date/Time
CST
Wind Sea
Height
m
Swell Vis
km
Cloud Weather Temp
°C
Press
hPa
Rain since
9am
mm
Dir  Spd
kts
Gust
kts
Height
m
Period
s
Dir
20/11:30pm SSW 4 7 - - - - - - - 25.5 1007.9 0.6
20/11:00pm SW 4 6 - - - - - - - 25.6 1007.9 0.6
20/10:30pm SW 5 9 - - - - - - - 25.7 1008.0 0.6
20/10:00pm SW 5 8 - - - - - - - 26.0 1007.5 0.6
20/09:30pm W 3 4 - - - - - - - 26.1 1007.0 0.6
20/09:00pm W 4 6 - - - - - - - 26.0 1006.3 0.6
20/08:30pm WSW 4 6 - - - - - - - 25.9 1006.5 0.6
20/08:00pm W 5 8 - - - - - - - 26.0 1006.6 0.6
20/07:30pm W 6 8 - - - - - - - 26.2 1006.5 0.6
20/07:00pm W 3 4 - - - - - - - 26.1 1006.0 0.6
20/06:30pm WSW 3 5 - - - - - - - 26.2 1005.6 0.6
20/06:00pm SW 1 3 - - - - - - Rain 26.3 1005.2 0.2
20/05:30pm SW 6 11 - - - - - - - 26.7 1005.8 0.0
20/05:00pm WNW 4 6 - - - - - - - 27.5 1005.0 0.0
20/04:30pm WSW 7 10 - - - - - - - 28.4 1004.9 0.0
20/04:00pm NW 6 10 - - - - - - - 30.0 1004.5 0.0
20/03:30pm N 7 11 - - - - - - - 32.0 1004.5 0.0
20/03:00pm N 7 11 - - - - - - - 32.0 1004.7 0.0
20/02:30pm NNE 5 9 - - - - - - - 32.5 1005.0 0.0
20/02:00pm NNE 5 7 - - - - - - - 31.8 1005.3 0.0
20/01:30pm NE 2 5 - - - - - - - 32.4 1005.9 0.0
20/01:00pm ENE 6 8 - - - - - - - 32.2 1006.6 0.0
20/12:30pm WSW 4 5 - - - - - - - 32.2 1007.0 0.0
20/12:00pm S 4 6 - - - - - - - 31.5 1007.0 0.0
20/11:30am W 3 5 - - - - - - - 31.0 1007.1 0.0
20/11:00am SSW 3 5 - - - - - - - 30.8 1007.3 0.0
20/10:30am SW 4 6 - - - - - - - 30.1 1007.4 0.0
20/10:00am SW 6 9 - - - - - - - 29.4 1007.4 0.0
20/09:30am SW 4 6 - - - - - - - 29.4 1007.2 0.0
20/09:00am SW 5 7 - - - - - - - 27.9 1007.1 -
20/08:30am SSW 4 5 - - - - - - - 27.0 1007.2 -
20/08:00am SW 4 6 - - - - - - - 26.0 1006.9 -
20/07:30am SW 3 4 - - - - - - - 25.7 1006.3 -
20/07:00am WSW 3 4 - - - - - - - 25.4 1006.2 -
20/06:30am WSW 4 6 - - - - - - - 25.3 1005.7 -
20/06:00am SW 3 5 - - - - - - - 25.3 1005.7 -
20/05:30am WSW 4 7 - - - - - - - 25.4 1005.3 -
20/05:00am W 3 5 - - - - - - - 25.3 1005.0 -
20/04:30am W 5 7 - - - - - - - 25.2 1004.2 -
20/04:00am WSW 5 6 - - - - - - - 25.3 1003.7 -
20/03:30am WSW 5 7 - - - - - - - 25.5 1004.2 -
20/03:00am WSW 5 6 - - - - - - - 25.5 1004.8 0.2
20/02:30am WSW 5 7 - - - - - - - 25.6 1005.1 -
20/02:00am SW 5 7 - - - - - - - 25.7 1005.6 -
20/01:30am WSW 6 8 - - - - - - - 25.8 1006.1 -
20/01:00am WSW 5 7 - - - - - - - 25.8 1006.2 -
20/12:30am WSW 4 6 - - - - - - - 25.8 1006.7 -
20/12:00am WSW 3 5 - - - - - - Recent precip. 25.6 1007.0 -
 
Date/Time
CST
Wind Sea
Height
m
Swell Vis
km
Cloud Weather Temp
°C
Press
hPa
Rain since
9am
mm
Dir  Spd
kts
Gust
kts
Height
m
Period
s
Dir
19/11:30pm SW 4 6 - - - - - - - 25.6 1007.2 -
19/11:00pm WSW 5 6 - - - - - - - 25.5 1007.6 -
19/10:30pm WSW 3 5 - - - - - - - 25.5 1007.0 -
19/10:00pm SSW 2 6 - - - - - - - 25.7 1006.6 -
19/09:30pm S 1 4 - - - - - - - 25.4 1005.9 -
19/09:00pm SSE 4 5 - - - - - - Recent precip. 25.3 1006.1 7.0
19/08:30pm SE 5 8 - - - - - - - 25.2 1006.2 -
19/08:00pm S 9 14 - - - - - - - 24.8 1006.6 -

Other formats

Comma delimited format used in spreadsheet applications
http://www.bom.gov.au/fwo/IDD60701/IDD60701.94140.axf

JavaScript Object Notation format (JSON) in row-major order
http://www.bom.gov.au/fwo/IDD60701/IDD60701.94140.json

Data quality

Most of these data are generated automatically and are frequently updated. Quality checks on data are not normally performed. It is possible for incorrect values to appear. Refer to information at About Latest Weather Observations and please check the disclaimer before using these data.